Details From MMZH - IXTAPA ZIHUATANEJO INTL
To MMZO - PLAYA DE ORO INTL
Flight Number -
Tags generated
Created
Modified
Stats Distance 199 nm / 369 km
Max Altitude 10,000 ft / 3,048 m
Waypoints 4
Social Downloads 0
Likes 0
Share VATSIM

Download

Looking for another format? Having issues loading an existing format? Contact us
Advertisement - Login to hide

Notes

Basic altitude profile: - Ascent Rate: 2500ft/min - Ascent Speed: 250kts - Cruise Altitude: 35000ft - Cruise Speed: 420kts - Descent Rate: 1500ft/min - Descent Speed: 250kts Options: - Use NATs: yes - Use PACOTS: yes - Use low airways: yes - Use high airways: yes

Route

MMZH ZIH V1 NUGED MMZO

ID Type Via Altitude Latitude Longitude Leg Dist Tot Dist Heading (true) Name
O MMZH APT - 0 ft / 0 m 17.60157˚ -101.46053˚ - 0 nm - IXTAPA ZIHUATANEJO INTL
ZIH VOR - 300 ft / 91 m 17.60316˚ -101.47672˚ 0 nm 0 nm 276° / 276° ZIHUATANEJO VOR-DME
NUGED FIX V1 (AWY-LO) 10,000 ft / 3,048 m 18.76649˚ -103.78951˚ 149 nm 150 nm 298° / 298° -
O MMZO APT - 0 ft / 0 m 19.14478˚ -104.55863˚ 49 nm 199 nm 298° / 297° PLAYA DE ORO INTL

Altitude Profile

Advertisement - Login to hide

Weather


0- 5 10 15 20 25 30 35+ Temperature / ° C

Clouds and Precipitation
Forecast for 2017-12-17 00:00 UTC. Updated an hour ago

Ground ~20,000 ft ~40,000 ft Winds

MMZH

Details ICAO MMZH (ZIH)
Name IXTAPA ZIHUATANEJO INTL
Region Mexico
Timezone America/Mexico_City (UTC-6.0)
Stats Elevation 26 ft / 8 m (AMSL)
Location 17.601568° -101.460535°
Runways 1
Magnetic Variation 5.613° E

METAR

MMZH 162349Z 00000KT 7SM SCT020TCU BKN250 28/23 A2990 RMK SLP116 52003 927 8/202 HZY

Decode

TAF

Not found

Departure Runways

ID Width Length Bearing (true) Bearing (mag) Surface Threshold Offset Overrun Length
08 197 ft / 60 m 8,207 ft / 2,502 m 91.58° 85.97° Asphalt 0 ft / 0 m 197 ft / 60 m
26 197 ft / 60 m 8,207 ft / 2,502 m 271.58° 265.97° Asphalt 0 ft / 0 m 197 ft / 60 m

MMZO

Details ICAO MMZO (ZLO)
Name PLAYA DE ORO INTL
Region Mexico
Timezone America/Mexico_City (UTC-6.0)
Stats Elevation 30 ft / 9 m (AMSL)
Location 19.144779° -104.558631°
Runways 1
Magnetic Variation 6.627° E

METAR

MMZO 162349Z 36006KT 10SM FEW020 SCT100 BKN210 25/21 A2989 RMK SP/// 5//// 9// 8/526

Decode

TAF

Not found

Destination Runways

ID Width Length Bearing (true) Bearing (mag) Surface Threshold Offset Overrun Length
10 148 ft / 45 m 7,214 ft / 2,199 m 106.21° 99.58° Asphalt 0 ft / 0 m 200 ft / 61 m
28 148 ft / 45 m 7,214 ft / 2,199 m 286.22° 279.59° Asphalt 0 ft / 0 m 200 ft / 61 m

Popular Alternatives